Terminal Aerodrome Forecast
Issued by NWS Portland, ME

Home | Current Version | Previous Version | Text Only | Print | Product List | Glossary On
Versions: 1 2 3 4 5 6 7 8 9 10 11 12 13 14 15 16 17
000
FTUS41 KGYX 232320
TAFPWM
TAF
KPWM 232320Z 2400/2424 15007KT 1 1/2SM BR OVC003
     FM240200 15007KT 1/4SM -DZ FG VV002
     FM241100 14009KT 3SM -DZ BR OVC008
     FM241200 14009KT 5SM -DZ BR OVC015 WS020/18035KT
     FM241700 15010G18KT P6SM OVC015 WS020/18040KT PROB30 2417/2422
      2SM -SHRA OVC007
     FM242200 16011G19KT 4SM -SHRA OVC003 WS020/19040KT=

USA.gov is the U.S. government's official web portal to all federal, state and local government web resources and services.